createdAt,value
2022-12-20T00:01:34.725Z,45.55
2022-12-20T00:04:37.282Z,51.22
2022-12-20T00:07:39.572Z,48.08
2022-12-20T00:10:45.133Z,56.85
2022-12-20T00:13:47.499Z,52.30
2022-12-20T00:16:50.539Z,49.20
2022-12-20T00:19:52.867Z,47.40
2022-12-20T00:22:55.980Z,49.60
2022-12-20T00:26:19.867Z,50.38
2022-12-20T00:29:22.536Z,45.17
2022-12-20T00:32:24.772Z,45.03
2022-12-20T00:35:27.422Z,54.08
2022-12-20T00:38:30.309Z,56.75
2022-12-20T00:41:34.232Z,56.63
2022-12-20T00:44:36.581Z,50.28
2022-12-20T00:47:39.223Z,49.60
2022-12-20T00:50:41.524Z,55.42
2022-12-20T00:53:44.681Z,52.25
2022-12-20T00:56:46.960Z,43.25
2022-12-20T00:59:49.835Z,46.60
2022-12-20T01:02:52.273Z,48.78
2022-12-20T01:05:58.045Z,48.60
2022-12-20T01:09:00.840Z,42.00
2022-12-20T01:12:04.360Z,47.83
2022-12-20T01:15:07.380Z,44.30
2022-12-20T01:18:12.136Z,48.15
2022-12-20T01:21:16.214Z,50.35
2022-12-20T01:24:20.375Z,46.08
2022-12-20T01:27:23.036Z,42.75
2022-12-20T01:30:25.680Z,46.53
2022-12-20T01:33:28.071Z,43.83
2022-12-20T01:36:33.498Z,49.88
2022-12-20T01:39:36.367Z,49.97
2022-12-20T01:42:39.253Z,47.00
2022-12-20T01:45:41.740Z,45.10
2022-12-20T01:48:49.681Z,45.63
2022-12-20T01:52:03.914Z,44.92
2022-12-20T01:55:25.218Z,43.47
2022-12-20T01:58:27.760Z,44.03
2022-12-20T02:01:30.569Z,48.33
2022-12-20T02:04:33.525Z,40.88
2022-12-20T02:07:38.599Z,47.58
2022-12-20T02:10:57.587Z,42.67
2022-12-20T02:14:36.541Z,45.22
2022-12-20T02:18:07.513Z,42.78
2022-12-20T02:21:18.581Z,40.78
2022-12-20T02:24:42.993Z,40.05
2022-12-20T02:28:15.509Z,46.30
2022-12-20T02:31:26.532Z,46.42
2022-12-20T02:34:33.294Z,43.87
2022-12-20T02:37:36.316Z,44.55
2022-12-20T02:40:43.371Z,42.87
2022-12-20T02:44:15.230Z,48.03
2022-12-20T02:47:30.426Z,43.42
2022-12-20T02:50:38.488Z,44.25
2022-12-20T02:53:42.878Z,44.40
2022-12-20T02:56:57.425Z,46.25
2022-12-20T03:00:06.200Z,39.53
2022-12-20T03:03:25.090Z,43.53
2022-12-20T03:06:28.082Z,38.63
2022-12-20T03:09:32.974Z,43.40
2022-12-20T03:12:35.243Z,40.20
2022-12-20T03:15:37.922Z,42.10
2022-12-20T03:18:40.289Z,39.90
2022-12-20T03:21:43.125Z,41.25
2022-12-20T03:24:46.069Z,41.95
2022-12-20T03:27:48.819Z,47.03
2022-12-20T03:30:52.285Z,38.22
2022-12-20T03:33:55.351Z,41.17
2022-12-20T03:36:57.827Z,44.08
2022-12-20T03:40:00.592Z,35.92
2022-12-20T03:43:02.953Z,39.60
2022-12-20T03:46:06.086Z,40.20
2022-12-20T03:52:16.263Z,43.47
2022-12-20T03:55:18.734Z,39.55
2022-12-20T03:58:21.843Z,38.30
2022-12-20T04:01:27.823Z,37.75
2022-12-20T04:04:31.171Z,40.53
2022-12-20T04:07:34.124Z,38.63
2022-12-20T04:10:56.611Z,37.72
2022-12-20T04:14:00.108Z,37.72
2022-12-20T04:17:03.931Z,40.42
2022-12-20T04:20:27.885Z,36.67
2022-12-20T04:23:31.461Z,40.58
2022-12-20T04:26:33.954Z,35.60
2022-12-20T04:29:38.043Z,37.38
2022-12-20T04:32:40.934Z,39.20
2022-12-20T04:35:43.603Z,40.40
2022-12-20T04:38:46.030Z,39.35
2022-12-20T04:41:48.955Z,36.30
2022-12-20T04:44:51.266Z,37.47
2022-12-20T04:47:55.399Z,35.72
2022-12-20T04:50:58.271Z,35.92
2022-12-20T04:54:01.071Z,33.38
2022-12-20T04:57:04.559Z,40.10
2022-12-20T05:00:07.834Z,39.75
2022-12-20T05:03:12.900Z,35.17
2022-12-20T05:06:16.673Z,31.77
2022-12-20T05:09:19.025Z,37.15
2022-12-20T05:12:21.656Z,37.30
2022-12-20T05:15:23.921Z,39.03
2022-12-20T05:18:28.254Z,38.40
2022-12-20T05:21:49.949Z,36.83
2022-12-20T05:25:11.272Z,32.67
2022-12-20T05:28:13.702Z,38.85
2022-12-20T05:31:16.281Z,35.95
2022-12-20T05:34:19.429Z,29.77
2022-12-20T05:40:25.275Z,39.70
2022-12-20T05:43:27.904Z,33.72
2022-12-20T05:46:31.190Z,37.38
2022-12-20T05:49:34.630Z,33.67
2022-12-20T05:52:37.247Z,38.13
2022-12-20T05:55:49.576Z,35.03
2022-12-20T05:58:53.435Z,32.33
2022-12-20T06:01:56.262Z,38.60
2022-12-20T06:04:59.429Z,32.67
2022-12-20T06:08:01.871Z,40.55
2022-12-20T06:11:05.194Z,35.33
2022-12-20T06:14:08.037Z,39.37
2022-12-20T06:17:12.331Z,35.17
2022-12-20T06:20:14.708Z,38.25
2022-12-20T06:23:18.426Z,34.03
2022-12-20T06:26:23.481Z,32.88
2022-12-20T06:29:26.447Z,37.40
2022-12-20T06:32:29.634Z,34.58
2022-12-20T06:35:32.684Z,34.38
2022-12-20T06:38:35.069Z,34.08
2022-12-20T06:41:37.861Z,34.10
2022-12-20T06:44:40.215Z,35.10
2022-12-20T06:47:42.905Z,35.45
2022-12-20T06:50:49.221Z,41.58
2022-12-20T06:53:55.484Z,36.22
2022-12-20T06:56:58.443Z,35.78
2022-12-20T07:00:01.444Z,36.17
2022-12-20T07:03:03.988Z,34.33
2022-12-20T07:06:06.806Z,39.40
2022-12-20T07:09:17.921Z,37.25
2022-12-20T07:12:20.554Z,40.78
2022-12-20T07:15:22.827Z,42.00
2022-12-20T07:18:25.599Z,37.45
2022-12-20T07:21:28.335Z,34.45
2022-12-20T07:24:31.066Z,39.40
2022-12-20T07:27:33.351Z,38.00
2022-12-20T07:30:37.332Z,32.08
2022-12-20T07:33:53.989Z,36.22
2022-12-20T07:36:58.097Z,42.97
2022-12-20T07:40:00.450Z,32.65
2022-12-20T07:43:02.957Z,31.25
2022-12-20T07:46:06.809Z,35.55
2022-12-20T07:49:21.788Z,39.72
2022-12-20T07:52:29.419Z,37.47
2022-12-20T07:55:33.538Z,33.60
2022-12-20T07:58:39.716Z,36.30
2022-12-20T08:01:45.298Z,35.10
2022-12-20T08:04:48.899Z,33.70
2022-12-20T08:07:58.490Z,28.87
2022-12-20T08:11:03.718Z,28.12
2022-12-20T08:14:08.262Z,34.08
2022-12-20T08:17:12.001Z,31.92
2022-12-20T08:20:16.060Z,30.15
2022-12-20T08:23:19.602Z,30.17
2022-12-20T08:26:21.931Z,30.55
2022-12-20T08:29:24.678Z,32.85
2022-12-20T08:32:27.663Z,29.25
2022-12-20T08:35:31.525Z,25.23
2022-12-20T08:38:34.561Z,32.05
2022-12-20T08:41:37.683Z,26.83
2022-12-20T08:44:40.147Z,33.75
2022-12-20T08:47:43.036Z,28.05
2022-12-20T08:50:45.584Z,31.27
2022-12-20T08:53:58.591Z,36.95
2022-12-20T08:57:01.038Z,32.22
2022-12-20T09:00:04.218Z,29.30
2022-12-20T09:03:07.938Z,26.20
2022-12-20T09:06:16.471Z,26.77
2022-12-20T09:09:18.982Z,28.92
2022-12-20T09:12:21.859Z,27.70
2022-12-20T09:15:24.348Z,29.58
2022-12-20T09:18:27.016Z,25.00
2022-12-20T09:21:29.597Z,27.85
2022-12-20T09:24:32.688Z,26.80
2022-12-20T09:27:35.000Z,29.40
2022-12-20T09:30:38.635Z,24.92
2022-12-20T09:33:42.858Z,26.55
2022-12-20T09:36:46.168Z,25.70
2022-12-20T09:39:51.854Z,26.83
2022-12-20T09:42:54.755Z,25.88
2022-12-20T09:46:00.140Z,32.72
2022-12-20T09:49:04.203Z,24.30
2022-12-20T09:52:21.732Z,25.95
2022-12-20T09:55:30.183Z,27.10
2022-12-20T09:58:45.279Z,25.50
2022-12-20T10:01:50.527Z,26.60
2022-12-20T10:05:01.707Z,26.10
2022-12-20T10:08:13.096Z,26.02
2022-12-20T10:12:04.519Z,31.17
2022-12-20T10:15:15.159Z,30.77
2022-12-20T10:18:23.582Z,25.05
2022-12-20T10:21:47.586Z,25.80
2022-12-20T10:25:02.535Z,26.73
2022-12-20T10:28:25.557Z,29.42
2022-12-20T10:31:28.409Z,24.80
2022-12-20T10:34:37.335Z,24.55
2022-12-20T10:38:07.190Z,24.58
2022-12-20T10:41:22.206Z,25.48
2022-12-20T10:44:28.519Z,24.27
2022-12-20T10:47:38.027Z,25.08
2022-12-20T10:50:40.756Z,21.83
2022-12-20T10:54:03.290Z,23.75
2022-12-20T10:57:27.169Z,26.40
2022-12-20T11:00:31.133Z,24.83
2022-12-20T11:03:33.945Z,25.45
2022-12-20T11:06:39.438Z,24.80
2022-12-20T11:09:59.509Z,26.75
2022-12-20T11:13:03.794Z,21.35
2022-12-20T11:16:22.185Z,24.10
2022-12-20T11:19:38.584Z,25.20
2022-12-20T11:23:03.781Z,30.80
2022-12-20T11:26:31.998Z,22.73
2022-12-20T11:29:35.524Z,21.77
2022-12-20T11:33:07.178Z,26.70
2022-12-20T11:36:31.781Z,24.63
2022-12-20T11:39:43.180Z,24.37
2022-12-20T11:43:28.797Z,25.75
2022-12-20T11:46:52.292Z,26.33
2022-12-20T11:50:34.011Z,24.42
2022-12-20T11:53:50.814Z,25.25
2022-12-20T11:56:59.992Z,27.37
2022-12-20T12:00:02.883Z,25.65
2022-12-20T12:03:18.598Z,27.58
2022-12-20T12:06:28.992Z,28.40
2022-12-20T12:10:14.586Z,24.23
2022-12-20T12:13:35.350Z,25.35
2022-12-20T12:16:44.780Z,28.80
2022-12-20T12:19:51.197Z,24.63
2022-12-20T12:23:01.329Z,24.52
2022-12-20T12:26:25.532Z,25.73
2022-12-20T12:29:29.912Z,25.92
2022-12-20T12:32:44.194Z,27.30
2022-12-20T12:35:56.780Z,25.52
2022-12-20T12:39:14.794Z,26.73
2022-12-20T12:42:44.364Z,23.98
2022-12-20T12:45:56.046Z,26.83
2022-12-20T12:49:07.456Z,24.48
2022-12-20T12:52:33.864Z,25.60
2022-12-20T12:55:50.515Z,28.67
2022-12-20T12:59:20.755Z,23.73
2022-12-20T13:02:29.349Z,28.08
2022-12-20T13:05:34.581Z,26.60
2022-12-20T13:09:09.362Z,24.17
2022-12-20T13:12:40.582Z,26.15
2022-12-20T13:15:42.884Z,28.12
2022-12-20T13:19:10.762Z,33.80
2022-12-20T13:22:13.028Z,28.85
2022-12-20T13:25:30.631Z,25.85
2022-12-20T13:28:33.455Z,26.30
2022-12-20T13:31:36.115Z,31.58
2022-12-20T13:34:54.416Z,32.67
2022-12-20T13:38:35.756Z,25.05
2022-12-20T13:41:47.049Z,26.73
2022-12-20T13:44:53.109Z,27.20
2022-12-20T13:48:05.180Z,25.17
2022-12-20T13:51:18.077Z,26.40
2022-12-20T13:54:26.839Z,23.27
2022-12-20T13:57:50.962Z,27.92
2022-12-20T14:00:54.400Z,27.58
2022-12-20T14:03:58.234Z,26.70
2022-12-20T14:07:02.373Z,22.55
2022-12-20T14:10:18.312Z,26.65
2022-12-20T14:13:27.809Z,25.52
2022-12-20T14:16:33.059Z,27.67
2022-12-20T14:19:35.532Z,26.62
2022-12-20T14:22:42.282Z,26.30
2022-12-20T14:26:00.774Z,29.35
2022-12-20T14:29:06.682Z,30.85
2022-12-20T14:32:21.764Z,26.90
2022-12-20T14:35:25.009Z,27.10
2022-12-20T14:38:31.652Z,28.95
2022-12-20T14:41:40.252Z,28.83
2022-12-20T14:44:42.626Z,28.95
2022-12-20T14:48:03.627Z,27.73
2022-12-20T14:51:06.176Z,28.70
2022-12-20T14:54:47.734Z,29.37
2022-12-20T14:57:52.013Z,31.10
2022-12-20T15:01:04.895Z,29.90
2022-12-20T15:04:21.871Z,28.55
2022-12-20T15:07:32.153Z,34.13
2022-12-20T15:10:34.486Z,31.27
2022-12-20T15:13:43.038Z,31.73
2022-12-20T15:16:48.798Z,34.75
2022-12-20T15:19:51.412Z,37.47
2022-12-20T15:22:53.801Z,39.60
2022-12-20T15:25:56.705Z,37.22
2022-12-20T15:28:59.155Z,40.15
2022-12-20T15:32:09.416Z,36.28
2022-12-20T15:35:16.061Z,42.35
2022-12-20T15:38:34.776Z,36.10
2022-12-20T15:41:47.246Z,40.15
2022-12-20T15:44:50.602Z,39.47
2022-12-20T15:47:53.147Z,38.75
2022-12-20T15:50:58.539Z,38.17
2022-12-20T15:54:03.417Z,37.22
2022-12-20T15:57:11.475Z,39.72
2022-12-20T16:00:16.372Z,36.42
2022-12-20T16:03:23.273Z,40.88
2022-12-20T16:06:26.068Z,36.38
2022-12-20T16:09:28.876Z,39.65
2022-12-20T16:12:35.732Z,35.90
2022-12-20T16:15:38.413Z,37.97
2022-12-20T16:18:40.805Z,37.03
2022-12-20T16:24:52.884Z,36.67
2022-12-20T16:27:56.472Z,37.53
2022-12-20T16:30:58.862Z,35.35
2022-12-20T16:34:04.250Z,37.50
2022-12-20T16:37:06.824Z,38.97
2022-12-20T16:40:10.518Z,38.15
2022-12-20T16:43:16.076Z,37.13
2022-12-20T16:46:21.408Z,37.13
2022-12-20T16:49:24.311Z,35.75
2022-12-20T16:52:28.093Z,41.37
2022-12-20T16:55:37.697Z,42.97
2022-12-20T16:59:17.136Z,46.92
2022-12-20T17:02:21.089Z,37.05
2022-12-20T17:05:33.726Z,39.03
2022-12-20T17:11:58.164Z,47.88
2022-12-20T17:15:00.611Z,40.40
2022-12-20T17:18:06.462Z,41.80
2022-12-20T17:31:59.879Z,43.83
2022-12-20T17:35:02.739Z,49.15
2022-12-20T17:38:07.605Z,45.88
2022-12-20T17:41:26.928Z,46.65
2022-12-20T17:44:31.670Z,44.45
2022-12-20T17:47:34.338Z,46.07
2022-12-20T17:50:36.711Z,45.25
2022-12-20T17:53:39.330Z,42.83
2022-12-20T17:56:41.668Z,45.25
2022-12-20T17:59:44.739Z,45.75
2022-12-20T18:02:47.198Z,45.55
2022-12-20T18:05:49.917Z,45.10
2022-12-20T18:08:57.086Z,48.40
2022-12-20T18:11:59.678Z,48.10
2022-12-20T18:15:04.074Z,49.40
2022-12-20T18:18:08.824Z,41.28
2022-12-20T18:21:16.703Z,44.50
2022-12-20T18:24:20.756Z,46.72
2022-12-20T18:27:30.170Z,48.03
2022-12-20T18:30:33.525Z,46.80
2022-12-20T18:33:36.309Z,51.35
2022-12-20T18:36:39.187Z,45.17
2022-12-20T18:39:41.943Z,47.72
2022-12-20T18:42:45.013Z,44.70
2022-12-20T18:45:47.422Z,46.83
2022-12-20T18:48:53.611Z,49.95
2022-12-20T18:51:55.946Z,41.28
2022-12-20T18:54:58.961Z,46.88
2022-12-20T18:58:01.283Z,46.45
2022-12-20T19:01:12.626Z,45.47
2022-12-20T19:04:20.832Z,40.10
2022-12-20T19:07:26.884Z,43.03
2022-12-20T19:10:33.156Z,41.78
2022-12-20T19:13:37.907Z,42.67
2022-12-20T19:16:40.433Z,38.47
2022-12-20T19:19:43.188Z,41.35
2022-12-20T19:22:45.490Z,40.70
2022-12-20T19:25:48.646Z,41.30
2022-12-20T19:28:51.483Z,43.33
2022-12-20T19:31:54.365Z,38.80
2022-12-20T19:34:56.679Z,37.17
2022-12-20T19:37:59.334Z,37.10
2022-12-20T19:41:04.433Z,39.97
2022-12-20T19:44:07.597Z,42.10
2022-12-20T19:47:09.917Z,40.12
2022-12-20T19:50:13.066Z,38.92
2022-12-20T19:53:15.522Z,35.33
2022-12-20T19:56:28.867Z,40.63
2022-12-20T19:59:31.573Z,39.22
2022-12-20T20:02:36.826Z,41.45
2022-12-20T20:05:39.566Z,41.75
2022-12-20T20:08:42.212Z,41.00
2022-12-20T20:11:44.995Z,34.92
2022-12-20T20:14:47.613Z,40.08
2022-12-20T20:17:51.272Z,37.75
2022-12-20T20:20:55.499Z,38.33
2022-12-20T20:23:59.462Z,40.67
2022-12-20T20:27:01.974Z,36.90
2022-12-20T20:30:07.123Z,37.10
2022-12-20T20:33:12.961Z,40.80
2022-12-20T20:36:22.202Z,38.42
2022-12-20T20:39:24.804Z,44.60
2022-12-20T20:42:29.361Z,38.92
2022-12-20T20:45:34.560Z,38.10
2022-12-20T20:48:38.237Z,42.47
2022-12-20T20:51:40.795Z,41.70
2022-12-20T20:54:43.585Z,40.03
2022-12-20T20:57:46.075Z,38.45
2022-12-20T21:00:51.728Z,37.58
2022-12-20T21:03:54.324Z,43.67
2022-12-20T21:06:57.995Z,42.58
2022-12-20T21:10:00.570Z,43.28
2022-12-20T21:13:03.703Z,44.35
2022-12-20T21:16:12.666Z,39.53
2022-12-20T21:19:15.662Z,43.05
2022-12-20T21:22:18.333Z,42.40
2022-12-20T21:25:24.312Z,44.03
2022-12-20T21:28:41.824Z,41.33
2022-12-20T21:31:47.777Z,41.63
2022-12-20T21:34:50.295Z,41.10
2022-12-20T21:37:53.360Z,37.70
2022-12-20T21:41:03.122Z,46.80
2022-12-20T21:44:06.015Z,43.15
2022-12-20T21:47:08.658Z,40.53
2022-12-20T21:50:14.237Z,42.50
2022-12-20T21:53:19.646Z,44.05
2022-12-20T21:56:24.141Z,42.75
2022-12-20T21:59:27.373Z,43.13
2022-12-20T22:02:30.127Z,44.13
2022-12-20T22:05:32.797Z,39.90
2022-12-20T22:08:35.860Z,42.10
2022-12-20T22:11:39.517Z,39.10
2022-12-20T22:14:41.858Z,41.67
2022-12-20T22:17:45.020Z,40.40
2022-12-20T22:20:47.702Z,40.42
2022-12-20T22:23:50.431Z,39.75
2022-12-20T22:26:52.866Z,38.75
2022-12-20T22:29:55.703Z,42.38
2022-12-20T22:32:58.365Z,38.70
2022-12-20T22:36:05.245Z,38.05
2022-12-20T22:39:08.514Z,41.08
2022-12-20T22:42:11.169Z,40.35
2022-12-20T22:45:13.784Z,40.12
2022-12-20T22:48:16.406Z,42.67
2022-12-20T22:51:21.551Z,43.38
2022-12-20T22:54:24.296Z,37.03
2022-12-20T22:57:27.736Z,40.85
2022-12-20T23:00:30.360Z,42.90
2022-12-20T23:03:32.963Z,36.72
2022-12-20T23:06:35.846Z,40.65
2022-12-20T23:09:38.220Z,42.03
2022-12-20T23:13:16.492Z,41.78
2022-12-20T23:16:19.201Z,37.97
2022-12-20T23:19:21.961Z,40.10
2022-12-20T23:22:40.374Z,43.13
2022-12-20T23:25:43.276Z,41.50
2022-12-20T23:28:45.594Z,40.05
2022-12-20T23:31:48.277Z,38.30
2022-12-20T23:34:50.866Z,39.45
2022-12-20T23:37:55.933Z,37.72
2022-12-20T23:40:58.300Z,37.60
2022-12-20T23:44:03.534Z,35.78
2022-12-20T23:47:06.049Z,39.33
2022-12-20T23:50:09.041Z,38.55
2022-12-20T23:53:15.195Z,36.38
2022-12-20T23:56:23.526Z,35.38
2022-12-20T23:59:28.315Z,36.35
